Time;durP1;ratioP1;P1;durP2;ratioP2;P2;SDS_P1;SDS_P2;PMS_P1;PMS_P2;Temp;Humidity;BMP_temperature;BMP_pressure;BME280_temperature;BME280_humidity;BME280_pressure;Samples;Min_cycle;Max_cycle;Signal;HPM_P1;HPM_P2
2021/04/06 00:02:21;;;;;;;15.57;7.00;;;;;;;16.95;43.84;100370.34;4982914;28;20042;-64
2021/04/06 00:04:51;;;;;;;20.87;8.20;;;;;;;16.96;43.81;100365.53;4987041;28;20054;-65
2021/04/06 00:07:22;;;;;;;20.07;8.73;;;;;;;16.98;43.91;100368.84;4988978;28;20527;-66
2021/04/06 00:09:55;;;;;;;19.00;8.40;;;;;;;16.94;43.91;100359.38;4989483;28;20057;-67
2021/04/06 00:12:23;;;;;;;15.97;7.93;;;;;;;16.91;44.13;100357.22;4988764;28;20051;-68
2021/04/06 00:14:53;;;;;;;19.50;8.40;;;;;;;16.91;44.31;100354.41;4988782;28;20101;-64
2021/04/06 00:17:21;;;;;;;18.77;8.65;;;;;;;16.85;44.56;100356.53;4986105;28;20050;-67
2021/04/06 00:19:48;;;;;;;13.27;8.57;;;;;;;16.89;44.70;100363.22;4988319;28;20511;-66
2021/04/06 00:22:17;;;;;;;18.83;8.73;;;;;;;16.82;44.68;100354.41;4984371;28;20073;-67
2021/04/06 00:24:48;;;;;;;16.63;7.17;;;;;;;16.73;44.90;100348.69;4988687;28;20351;-67
2021/04/06 00:27:22;;;;;;;15.10;7.87;;;;;;;16.61;45.65;100351.28;4986814;28;20046;-68
2021/04/06 00:29:54;;;;;;;18.97;8.27;;;;;;;16.44;46.57;100348.41;4988006;28;20090;-66
2021/04/06 00:32:24;;;;;;;19.17;7.90;;;;;;;16.24;47.42;100333.75;4983904;28;20057;-65
2021/04/06 00:35:02;;;;;;;22.65;9.20;;;;;;;16.17;48.08;100343.78;4991137;28;20046;-68
2021/04/06 00:37:29;;;;;;;25.27;8.80;;;;;;;16.02;48.97;100330.97;4985774;28;20714;-68
2021/04/06 00:40:03;;;;;;;19.00;8.33;;;;;;;15.98;49.81;100346.84;4983958;28;20061;-70
2021/04/06 00:42:30;;;;;;;23.33;9.70;;;;;;;15.96;50.11;100346.31;4990501;28;20054;-64
2021/04/06 00:45:16;;;;;;;20.50;9.33;;;;;;;16.00;49.50;100333.25;4988989;28;20054;-65
2021/04/06 00:47:43;;;;;;;22.43;9.67;;;;;;;16.17;49.19;100339.00;4987434;28;20042;-65
2021/04/06 00:50:14;;;;;;;22.63;9.67;;;;;;;16.17;49.41;100338.16;4988298;28;20050;-65
2021/04/06 00:52:46;;;;;;;20.60;9.00;;;;;;;16.13;49.24;100321.06;4985994;28;20108;-65
2021/04/06 00:55:17;;;;;;;19.60;8.33;;;;;;;16.18;49.27;100332.22;4989756;28;20835;-66
2021/04/06 00:57:45;;;;;;;24.40;9.37;;;;;;;15.64;49.52;100244.09;4987866;28;20410;-65
2021/04/06 01:00:29;;;;;;;16.53;7.80;;;;;;;16.06;49.97;100337.59;4986570;28;20048;-65
2021/04/06 01:03:01;;;;;;;18.47;8.53;;;;;;;15.91;50.11;100330.41;4986009;28;20410;-63
2021/04/06 01:05:33;;;;;;;19.37;8.23;;;;;;;15.82;50.48;100333.16;4985968;28;20133;-64
2021/04/06 01:08:03;;;;;;;17.47;7.40;;;;;;;15.63;51.43;100318.44;4986665;28;20046;-64
2021/04/06 01:10:31;;;;;;;20.23;6.90;;;;;;;15.66;52.03;100340.34;4986788;28;20043;-64
2021/04/06 01:12:58;;;;;;;22.63;7.83;;;;;;;15.60;52.38;100336.78;4985048;28;20399;-64
2021/04/06 01:15:26;;;;;;;19.67;8.93;;;;;;;15.50;52.66;100319.31;4987163;28;20058;-64
2021/04/06 01:17:53;;;;;;;14.50;8.13;;;;;;;15.45;52.94;100316.63;4987860;28;20046;-63
2021/04/06 01:20:21;;;;;;;15.20;8.20;;;;;;;15.54;53.09;100325.97;4990003;28;20070;-63
2021/04/06 01:22:52;;;;;;;17.77;8.00;;;;;;;15.43;52.98;100307.69;4989590;28;20529;-63
2021/04/06 01:25:25;;;;;;;14.43;7.73;;;;;;;15.64;52.31;100331.34;4986507;28;20050;-65
2021/04/06 01:28:09;;;;;;;21.47;8.70;;;;;;;15.57;52.02;100300.00;4983799;28;20414;-66
2021/04/06 01:30:47;;;;;;;15.80;6.87;;;;;;;15.68;51.56;100315.50;4987917;28;20047;-66
2021/04/06 01:33:19;;;;;;;21.13;7.80;;;;;;;15.71;51.44;100299.97;4988624;28;21038;-68
2021/04/06 01:35:47;;;;;;;23.30;7.87;;;;;;;15.81;51.23;100305.31;4985776;28;20053;-67
2021/04/06 01:38:15;;;;;;;16.47;7.10;;;;;;;15.96;50.98;100320.97;4983518;28;20042;-68
2021/04/06 01:40:43;;;;;;;20.37;7.93;;;;;;;15.97;50.70;100317.84;4977371;28;20046;-68
2021/04/06 01:43:14;;;;;;;17.70;8.60;;;;;;;15.94;50.71;100314.84;4984297;28;20649;-68
2021/04/06 01:45:45;;;;;;;14.93;8.73;;;;;;;15.86;50.70;100308.84;4984729;28;20061;-67
2021/04/06 01:48:15;;;;;;;;;;;;;;;15.87;50.03;100318.94;4985728;28;20054;-69
2021/04/06 01:50:42;;;;;;;13.35;7.13;;;;;;;15.63;50.41;100302.38;4986962;28;19933;-68
2021/04/06 01:53:10;;;;;;;14.37;7.60;;;;;;;15.65;50.67;100311.31;4987501;28;20058;-68
2021/04/06 01:55:39;;;;;;;14.33;7.20;;;;;;;15.58;50.59;100288.41;4987779;28;20047;-68
2021/04/06 01:58:06;;;;;;;13.77;7.93;;;;;;;15.67;50.72;100296.13;4984111;28;20049;-67
2021/04/06 02:00:49;;;;;;;21.43;8.10;;;;;;;15.75;50.83;100313.06;4985567;28;20073;-65
2021/04/06 02:03:17;;;;;;;16.30;8.33;;;;;;;15.73;50.50;100304.13;4983400;28;20045;-67
2021/04/06 02:05:46;;;;;;;14.43;8.03;;;;;;;15.68;50.62;100281.72;4983047;28;20550;-66
2021/04/06 02:08:16;;;;;;;20.93;7.57;;;;;;;15.67;50.82;100291.34;4986634;28;20088;-68
2021/04/06 02:10:43;;;;;;;16.27;7.07;;;;;;;15.67;50.99;100290.50;4986047;28;20634;-68
2021/04/06 02:13:13;;;;;;;18.80;7.13;;;;;;;15.64;51.10;100298.41;4986571;28;20054;-65
2021/04/06 02:15:56;;;;;;;18.50;7.77;;;;;;;15.59;50.97;100294.91;4977735;28;20043;-66
2021/04/06 02:18:25;;;;;;;16.33;7.97;;;;;;;15.55;51.37;100289.06;4987781;28;20100;-68
2021/04/06 02:21:03;;;;;;;16.20;8.10;;;;;;;15.29;51.67;100272.00;4987936;28;20050;-71
2021/04/06 02:23:49;;;;;;;17.70;8.47;;;;;;;15.24;52.39;100283.34;4986494;28;20054;-68
2021/04/06 02:26:16;;;;;;;20.00;7.57;;;;;;;15.04;53.18;100272.59;4989161;28;20050;-71
2021/04/06 02:28:43;;;;;;;16.37;7.67;;;;;;;14.87;53.74;100262.03;4984277;28;20491;-67
2021/04/06 02:31:09;;;;;;;18.80;6.63;;;;;;;14.84;54.20;100279.53;4986848;28;20046;-68
2021/04/06 02:33:37;;;;;;;14.03;5.63;;;;;;;14.75;54.60;100279.44;4988351;28;20039;-69
2021/04/06 02:36:08;;;;;;;18.87;6.67;;;;;;;14.56;54.72;100273.94;4988767;28;20046;-69
2021/04/06 02:38:39;;;;;;;13.68;5.75;;;;;;;14.36;54.99;100263.97;4992528;28;20053;-68
2021/04/06 02:41:15;;;;;;;13.20;5.47;;;;;;;14.44;55.24;100282.88;4990748;28;20050;-68
2021/04/06 02:43:42;;;;;;;;;;;;;;;14.35;55.25;100275.50;4990040;28;20125;-71
2021/04/06 02:46:09;;;;;;;7.40;3.80;;;;;;;14.24;55.34;100272.06;4984466;28;19952;-71
2021/04/06 02:48:48;;;;;;;13.80;6.10;;;;;;;14.12;55.86;100266.97;4987221;28;20129;-71
2021/04/06 02:51:15;;;;;;;21.57;7.10;;;;;;;14.21;55.29;100272.69;4989086;28;20058;-69
2021/04/06 02:53:42;;;;;;;12.87;6.53;;;;;;;14.26;55.19;100274.59;4990445;28;20046;-69
2021/04/06 02:56:09;;;;;;;19.70;8.30;;;;;;;14.32;54.79;100273.31;4989444;28;20054;-82
2021/04/06 02:58:37;;;;;;;15.97;6.80;;;;;;;14.36;54.70;100263.97;4987986;28;20418;-68
2021/04/06 03:01:30;;;;;;;16.70;7.43;;;;;;;14.50;54.07;100268.75;4987151;28;20042;-71
2021/04/06 03:03:56;;;;;;;14.43;5.93;;;;;;;14.58;53.43;100271.66;4988589;28;20046;-72
2021/04/06 03:06:32;;;;;;;14.17;5.53;;;;;;;14.62;53.68;100281.13;4986432;28;20136;-74
2021/04/06 03:08:59;;;;;;;15.27;7.00;;;;;;;14.46;53.83;100272.19;4984735;28;20073;-68
2021/04/06 03:11:27;;;;;;;18.70;7.77;;;;;;;14.43;53.97;100281.22;4991569;28;20820;-77
2021/04/06 03:13:56;;;;;;;11.87;5.97;;;;;;;14.45;53.70;100270.50;4985998;28;20144;-70
2021/04/06 03:16:23;;;;;;;12.85;6.03;;;;;;;14.53;53.61;100279.38;4988837;28;20056;-69
2021/04/06 03:18:49;;;;;;;15.03;6.00;;;;;;;14.53;53.11;100263.34;4986044;28;20049;-68
2021/04/06 03:21:15;;;;;;;13.33;6.10;;;;;;;14.78;52.97;100267.56;4988866;28;20483;-74
2021/04/06 03:23:41;;;;;;;14.43;5.90;;;;;;;14.79;52.96;100276.84;4989350;28;20046;-76
2021/04/06 03:26:08;;;;;;;13.87;6.67;;;;;;;14.92;52.47;100282.44;4991885;28;20042;-73
2021/04/06 03:28:37;;;;;;;15.27;6.97;;;;;;;15.01;52.25;100284.47;4993005;28;20051;-74
2021/04/06 03:31:11;;;;;;;20.15;6.75;;;;;;;15.03;51.92;100288.63;4983123;28;20046;-75
2021/04/06 03:33:42;;;;;;;16.23;7.13;;;;;;;15.05;51.81;100291.97;4991440;28;20046;-84
2021/04/06 03:36:19;;;;;;;16.37;7.83;;;;;;;15.06;51.62;100287.19;4992365;28;20129;-81
2021/04/06 03:38:48;;;;;;;24.87;7.47;;;;;;;15.05;51.33;100288.34;4985379;28;20042;-76
2021/04/06 03:41:17;;;;;;;14.93;6.93;;;;;;;14.93;51.60;100280.44;4989676;28;20414;-71
2021/04/06 03:43:43;;;;;;;12.17;6.23;;;;;;;14.95;51.56;100295.03;4989671;28;20047;-75
2021/04/06 03:46:09;;;;;;;16.93;7.13;;;;;;;14.89;51.42;100280.25;4987976;28;20073;-78
2021/04/06 03:48:39;;;;;;;18.63;7.20;;;;;;;14.85;51.57;100286.81;4989461;28;20410;-79
2021/04/06 03:51:23;;;;;;;18.38;8.80;;;;;;;14.81;51.37;100286.63;4982358;28;20045;-71
2021/04/06 03:53:50;;;;;;;25.30;8.10;;;;;;;14.77;51.46;100285.59;4982007;28;20487;-68
2021/04/06 03:56:17;;;;;;;16.53;7.50;;;;;;;14.77;51.65;100282.78;4987339;28;20060;-69
2021/04/06 03:58:56;;;;;;;20.13;7.87;;;;;;;14.74;51.82;100276.97;4988742;28;20149;-70
2021/04/06 04:01:23;;;;;;;13.43;6.13;;;;;;;14.71;51.86;100275.59;4979858;28;20050;-69
2021/04/06 04:03:56;;;;;;;17.43;7.37;;;;;;;14.62;52.02;100271.88;4989369;28;20418;-69
2021/04/06 04:06:27;;;;;;;18.47;6.57;;;;;;;14.45;52.64;100261.25;4989139;28;20057;-68
2021/04/06 04:08:55;;;;;;;17.70;7.53;;;;;;;13.99;53.14;100214.47;4989704;28;20073;-67
2021/04/06 04:11:22;;;;;;;16.93;6.07;;;;;;;14.13;53.90;100259.38;4989022;28;20058;-68
2021/04/06 04:13:49;;;;;;;17.03;6.73;;;;;;;14.04;54.42;100267.69;4979297;28;20046;-73
2021/04/06 04:16:16;;;;;;;15.43;6.23;;;;;;;13.88;55.10;100272.78;4990429;28;20064;-72
2021/04/06 04:18:42;;;;;;;13.33;5.63;;;;;;;13.62;56.26;100260.34;4987214;28;20474;-73
2021/04/06 04:21:12;;;;;;;11.47;4.93;;;;;;;13.05;57.01;100196.78;4982009;28;20055;-68
2021/04/06 04:23:39;;;;;;;11.43;6.30;;;;;;;13.23;57.95;100261.53;4988475;28;20062;-68
2021/04/06 04:26:07;;;;;;;10.57;6.00;;;;;;;13.04;58.42;100245.59;4987655;28;20126;-69
2021/04/06 04:28:34;;;;;;;16.90;7.20;;;;;;;13.02;58.63;100247.88;4983341;28;20098;-69
2021/04/06 04:31:06;;;;;;;15.77;6.67;;;;;;;13.13;58.57;100261.69;4986125;28;20125;-68
2021/04/06 04:33:32;;;;;;;26.57;8.20;;;;;;;13.15;58.35;100253.81;4990340;28;20056;-70
2021/04/06 04:35:59;;;;;;;13.57;6.67;;;;;;;13.20;58.25;100259.38;4989378;28;20062;-69
2021/04/06 04:38:25;;;;;;;16.33;6.43;;;;;;;13.16;58.39;100258.28;4989293;28;20057;-70
2021/04/06 04:40:52;;;;;;;21.43;8.50;;;;;;;13.09;58.55;100252.25;4987147;28;20810;-69
2021/04/06 04:43:18;;;;;;;21.63;7.20;;;;;;;12.81;58.84;100207.25;4989345;28;20046;-69
2021/04/06 04:45:45;;;;;;;18.70;8.13;;;;;;;13.18;58.55;100256.03;4986396;28;20046;-69
2021/04/06 04:48:12;;;;;;;19.60;8.17;;;;;;;13.15;58.33;100242.63;4980781;28;20078;-69
2021/04/06 04:50:39;;;;;;;21.33;6.87;;;;;;;13.23;58.31;100251.19;4985780;28;20133;-69
2021/04/06 04:53:06;;;;;;;24.80;6.93;;;;;;;13.25;58.18;100257.31;4984861;28;20049;-72
2021/04/06 04:55:34;;;;;;;26.57;8.50;;;;;;;13.25;58.04;100253.69;4987098;28;20771;-72
2021/04/06 04:58:01;;;;;;;11.90;5.80;;;;;;;13.19;58.26;100250.09;4987314;28;20043;-76
2021/04/06 05:00:27;;;;;;;15.00;6.77;;;;;;;13.10;58.57;100245.50;4984070;28;20502;-76
2021/04/06 05:02:54;;;;;;;11.50;5.30;;;;;;;13.00;58.87;100238.94;4988952;28;20073;-77
2021/04/06 05:05:20;;;;;;;20.03;6.37;;;;;;;12.93;59.20;100246.88;4986747;28;20061;-73
2021/04/06 05:07:46;;;;;;;19.83;7.07;;;;;;;12.60;59.05;100194.72;4990282;28;20078;-71
2021/04/06 05:10:15;;;;;;;30.37;7.47;;;;;;;12.94;58.87;100237.34;4986724;28;20042;-77
2021/04/06 05:12:45;;;;;;;29.20;7.10;;;;;;;12.96;59.02;100235.06;4987440;28;20121;-73
2021/04/06 05:15:11;;;;;;;20.17;6.60;;;;;;;12.73;58.73;100207.97;4988432;28;20121;-68
2021/04/06 05:17:37;;;;;;;14.40;5.67;;;;;;;12.75;59.27;100225.28;4966525;28;20218;-67
2021/04/06 05:20:05;;;;;;;13.20;6.30;;;;;;;12.63;59.58;100222.94;4980604;28;20058;-66
2021/04/06 05:22:32;;;;;;;14.47;5.80;;;;;;;12.55;59.92;100241.28;4982090;28;20419;-71
2021/04/06 05:24:59;;;;;;;15.10;4.90;;;;;;;12.48;60.29;100232.41;4982578;28;20549;-66
2021/04/06 05:27:26;;;;;;;4.30;2.70;;;;;;;12.21;60.85;100213.44;4986187;28;20053;-67
2021/04/06 05:29:53;;;;;;;14.97;4.63;;;;;;;12.31;61.03;100223.69;4988464;28;20056;-70
2021/04/06 05:32:19;;;;;;;13.43;5.27;;;;;;;12.30;60.77;100245.22;4987356;28;20050;-70
2021/04/06 05:34:45;;;;;;;7.83;3.93;;;;;;;12.22;60.94;100233.88;4981371;28;20511;-68
2021/04/06 05:37:11;;;;;;;6.70;3.77;;;;;;;12.16;60.85;100229.47;4988581;28;20053;-66
2021/04/06 05:39:38;;;;;;;18.20;7.27;;;;;;;12.01;61.37;100217.34;4975961;28;20046;-72
2021/04/06 05:42:04;;;;;;;9.77;4.77;;;;;;;11.52;61.85;100165.28;4987179;28;20078;-66
2021/04/06 05:44:31;;;;;;;3.80;2.57;;;;;;;11.72;62.20;100213.72;4983991;28;20050;-67
2021/04/06 05:47:00;;;;;;;5.13;3.20;;;;;;;11.76;62.40;100225.97;4988290;28;20049;-71
2021/04/06 05:49:32;;;;;;;10.83;4.33;;;;;;;11.56;62.82;100213.06;4981887;28;20050;-66
2021/04/06 05:51:58;;;;;;;12.13;5.33;;;;;;;11.48;61.90;100186.56;4986185;28;20042;-66
2021/04/06 05:54:26;;;;;;;21.43;6.10;;;;;;;11.80;62.14;100221.47;4986942;28;20058;-67
2021/04/06 05:56:56;;;;;;;11.63;6.60;;;;;;;11.90;61.78;100224.19;4984297;28;20120;-67
2021/04/06 05:59:22;;;;;;;13.65;5.30;;;;;;;12.02;61.51;100233.00;4985072;28;20057;-66
2021/04/06 06:01:49;;;;;;;14.40;4.63;;;;;;;11.84;62.20;100233.78;4984237;28;20046;-68
2021/04/06 06:04:18;;;;;;;12.80;6.03;;;;;;;11.83;62.33;100226.50;4992204;28;20063;-69
2021/04/06 06:06:46;;;;;;;16.27;7.00;;;;;;;11.88;62.19;100226.44;4994104;28;20137;-69
2021/04/06 06:09:13;;;;;;;15.23;7.80;;;;;;;11.94;61.79;100222.47;4993206;28;20046;-66
2021/04/06 06:12:00;;;;;;;16.17;6.97;;;;;;;12.00;61.59;100221.28;4990143;28;20054;-65
2021/04/06 06:14:31;;;;;;;17.83;7.33;;;;;;;12.15;61.25;100236.22;4991465;28;20495;-68
2021/04/06 06:17:10;;;;;;;14.13;5.93;;;;;;;12.12;61.24;100234.84;4989671;28;20054;-68
2021/04/06 06:19:37;;;;;;;14.00;6.00;;;;;;;11.95;61.42;100212.94;4987970;28;20069;-74
2021/04/06 06:22:11;;;;;;;15.23;7.10;;;;;;;12.05;61.62;100237.16;4987476;28;20053;-71
2021/04/06 06:24:40;;;;;;;15.63;7.60;;;;;;;12.12;61.45;100222.81;4989799;28;20142;-78
2021/04/06 06:27:23;;;;;;;23.03;7.07;;;;;;;12.13;61.25;100233.69;4989879;28;20459;-71
2021/04/06 06:29:51;;;;;;;12.13;5.70;;;;;;;12.07;61.13;100216.16;4990484;28;20414;-71
2021/04/06 06:32:23;;;;;;;15.50;7.60;;;;;;;12.00;61.03;100215.69;4991912;28;20052;-69
2021/04/06 06:34:51;;;;;;;17.57;8.20;;;;;;;12.22;60.82;100228.28;4990958;28;20550;-70
2021/04/06 06:37:25;;;;;;;18.73;7.67;;;;;;;12.35;60.54;100233.16;4990913;28;20049;-70
2021/04/06 06:39:59;;;;;;;15.63;7.27;;;;;;;12.41;60.40;100231.97;4989166;28;20128;-70
2021/04/06 06:42:38;;;;;;;14.30;7.10;;;;;;;12.56;60.18;100239.31;4988935;28;20403;-70
2021/04/06 06:45:21;;;;;;;23.20;7.40;;;;;;;12.69;59.36;100226.53;4988890;28;20046;-69
2021/04/06 06:47:57;;;;;;;21.23;7.10;;;;;;;13.08;58.59;100250.59;4991681;28;20053;-70
2021/04/06 06:50:25;;;;;;;16.27;7.77;;;;;;;12.66;58.54;100145.88;4985203;28;20118;-68
2021/04/06 06:52:55;;;;;;;22.47;7.10;;;;;;;13.32;58.17;100228.06;4989816;28;20050;-70
2021/04/06 06:55:24;;;;;;;30.20;8.43;;;;;;;13.68;57.52;100242.28;4987209;28;20422;-70
2021/04/06 06:58:02;;;;;;;18.87;7.70;;;;;;;13.78;57.21;100230.88;4986995;28;20471;-70
2021/04/06 07:00:28;;;;;;;17.40;7.27;;;;;;;13.74;56.66;100188.56;4982779;28;20049;-67
2021/04/06 07:02:54;;;;;;;16.70;8.03;;;;;;;14.40;56.24;100255.75;4984133;28;20043;-70
2021/04/06 07:05:23;;;;;;;16.10;7.27;;;;;;;14.59;55.82;100250.84;4989543;28;20050;-69
2021/04/06 07:07:54;;;;;;;17.53;7.13;;;;;;;14.82;55.48;100248.91;4985978;28;20046;-69
2021/04/06 07:10:24;;;;;;;19.90;8.80;;;;;;;15.04;54.90;100236.91;4984086;28;20482;-70
2021/04/06 07:13:02;;;;;;;12.80;6.72;;;;;;;15.30;54.53;100253.94;4983985;28;20050;-69
2021/04/06 07:15:30;;;;;;;15.87;6.73;;;;;;;15.34;54.12;100237.25;4982459;28;20047;-69
2021/04/06 07:18:03;;;;;;;20.47;7.97;;;;;;;15.60;53.78;100251.53;4987641;28;20046;-70
2021/04/06 07:20:32;;;;;;;19.63;6.93;;;;;;;15.71;53.11;100252.94;4984062;28;20144;-66
2021/04/06 07:23:03;;;;;;;14.57;7.07;;;;;;;15.82;52.90;100247.84;4991919;28;20580;-66
2021/04/06 07:25:31;;;;;;;20.73;7.87;;;;;;;16.01;52.61;100242.00;4984756;28;20054;-65
2021/04/06 07:27:58;;;;;;;17.70;7.57;;;;;;;16.23;52.05;100244.72;4987638;28;20065;-67
2021/04/06 07:30:25;;;;;;;25.70;6.97;;;;;;;16.44;51.85;100235.66;4987974;28;20046;-66
2021/04/06 07:32:52;;;;;;;17.20;6.63;;;;;;;16.72;51.18;100241.88;4989947;28;20038;-64
2021/04/06 07:35:19;;;;;;;17.43;6.93;;;;;;;17.09;50.15;100248.88;4987150;28;20453;-67
2021/04/06 07:37:47;;;;;;;19.30;7.87;;;;;;;17.59;50.03;100250.34;4990413;28;20039;-65
2021/04/06 07:40:20;;;;;;;25.20;7.70;;;;;;;18.18;49.53;100254.16;4988633;28;20212;-66
2021/04/06 07:42:47;;;;;;;15.07;7.17;;;;;;;18.70;48.78;100245.41;4982754;28;20062;-66
2021/04/06 07:45:23;;;;;;;23.37;8.73;;;;;;;19.25;47.93;100251.16;4988875;28;20058;-66
2021/04/06 07:47:51;;;;;;;20.43;7.93;;;;;;;19.62;47.57;100250.16;4983708;28;20051;-65
2021/04/06 07:50:35;;;;;;;17.67;8.02;;;;;;;19.94;47.32;100246.84;4987529;28;20483;-64
2021/04/06 07:53:25;;;;;;;15.73;7.97;;;;;;;20.27;46.87;100249.59;4984467;28;20047;-64
2021/04/06 07:56:00;;;;;;;17.23;8.32;;;;;;;20.67;45.94;100254.59;4985338;28;20050;-65
2021/04/06 07:58:49;;;;;;;21.75;8.57;;;;;;;21.01;45.59;100259.75;4987974;28;20052;-65
2021/04/06 08:01:25;;;;;;;23.30;8.97;;;;;;;21.36;44.69;100256.34;4983102;28;20054;-64
2021/04/06 08:03:54;;;;;;;18.83;8.45;;;;;;;;;;4988758;28;20406;-66
2021/04/06 08:06:26;;;;;;;16.67;7.57;;;;;;;21.79;43.31;100249.06;4988839;28;20418;-64
2021/04/06 08:08:53;;;;;;;19.83;8.40;;;;;;;21.94;42.64;100250.25;4989181;28;20053;-65
2021/04/06 08:11:53;;;;;;;20.08;7.50;;;;;;;22.06;42.35;100243.69;4983237;28;20432;-65
2021/04/06 08:14:19;;;;;;;24.88;7.63;;;;;;;22.06;41.70;100247.34;4986074;28;20301;-64
2021/04/06 08:16:45;;;;;;;14.82;7.40;;;;;;;22.27;41.11;100240.59;4986736;28;20050;-65
2021/04/06 08:19:12;;;;;;;22.92;8.55;;;;;;;22.63;40.86;100248.00;4990316;28;20493;-65
2021/04/06 08:21:38;;;;;;;16.92;7.65;;;;;;;22.73;39.95;100238.88;4989466;28;20058;-63
2021/04/06 08:24:21;;;;;;;18.58;7.35;;;;;;;23.01;39.82;100241.63;4991104;28;20046;-64
2021/04/06 08:26:48;;;;;;;16.40;8.68;;;;;;;23.44;38.97;100250.25;4985300;28;20053;-65
2021/04/06 08:29:24;;;;;;;20.05;8.13;;;;;;;23.73;38.72;100243.97;4989851;28;20054;-65
2021/04/06 08:32:19;;;;;;;24.58;8.10;;;;;;;23.97;38.93;100224.84;4984860;28;20047;-65
2021/04/06 08:34:53;;;;;;;17.63;8.07;;;;;;;24.41;38.02;100239.53;4974250;28;20053;-66
2021/04/06 08:37:35;;;;;;;26.15;8.65;;;;;;;24.64;37.21;100210.09;4990467;28;20046;-67
2021/04/06 08:40:07;;;;;;;19.67;8.75;;;;;;;24.83;36.27;100218.56;4983261;28;20050;-65
2021/04/06 08:42:35;;;;;;;20.27;8.73;;;;;;;24.87;36.46;100242.28;4987113;28;20418;-66
2021/04/06 08:45:04;;;;;;;19.08;8.63;;;;;;;24.83;36.19;100239.38;4984201;28;20053;-64
2021/04/06 08:47:46;;;;;;;19.83;8.63;;;;;;;25.02;35.87;100226.97;4969737;28;20043;-65
2021/04/06 08:50:32;;;;;;;21.90;8.77;;;;;;;25.49;35.17;100231.28;4982552;28;20435;-66
2021/04/06 08:52:59;;;;;;;24.50;9.00;;;;;;;25.77;34.33;100247.13;4986685;28;20447;-65
2021/04/06 08:55:26;;;;;;;22.08;8.98;;;;;;;25.94;33.83;100237.13;4989812;28;20429;-64
2021/04/06 08:57:59;;;;;;;22.38;8.95;;;;;;;25.97;33.87;100242.06;4990162;28;20443;-64
2021/04/06 09:00:27;;;;;;;24.80;8.55;;;;;;;26.22;33.45;100223.13;4986762;28;20054;-66
2021/04/06 09:03:07;;;;;;;16.10;8.07;;;;;;;26.39;33.36;100223.66;4988671;28;20050;-64
2021/04/06 09:05:34;;;;;;;18.63;8.25;;;;;;;26.74;32.69;100243.19;4988070;28;20426;-65
2021/04/06 09:08:00;;;;;;;18.42;8.00;;;;;;;27.15;32.17;100238.16;4980138;28;20117;-65
2021/04/06 09:10:37;;;;;;;24.67;8.98;;;;;;;27.51;31.88;100229.72;4989967;28;20125;-66
2021/04/06 09:13:04;;;;;;;23.63;8.00;;;;;;;27.65;31.02;100238.34;4988106;28;20049;-65
2021/04/06 09:15:30;;;;;;;22.50;9.23;;;;;;;27.89;30.75;100236.00;4988191;28;20042;-66
2021/04/06 09:18:02;;;;;;;20.42;8.85;;;;;;;28.07;30.34;100233.19;4982123;28;20134;-65
2021/04/06 09:20:28;;;;;;;23.52;9.75;;;;;;;28.15;29.99;100222.53;4985963;28;20125;-64
2021/04/06 09:22:55;;;;;;;18.45;8.90;;;;;;;28.40;29.71;100234.03;4988848;28;20053;-65
2021/04/06 09:25:24;;;;;;;22.85;9.52;;;;;;;28.51;29.30;100229.09;4984701;28;20144;-65
2021/04/06 09:27:57;;;;;;;18.88;8.98;;;;;;;28.67;29.37;100220.09;4989165;28;20049;-67
2021/04/06 09:30:33;;;;;;;26.10;9.35;;;;;;;28.85;28.55;100231.53;4988595;28;20050;-65
2021/04/06 09:33:13;;;;;;;28.08;9.70;;;;;;;28.75;28.76;100231.16;4987227;28;20043;-64
2021/04/06 09:35:44;;;;;;;28.15;8.35;;;;;;;28.85;28.33;100231.53;4987892;28;20392;-65
2021/04/06 09:38:11;;;;;;;24.83;7.18;;;;;;;29.20;27.74;100236.44;4987270;28;20038;-66
2021/04/06 09:40:41;;;;;;;20.95;9.70;;;;;;;29.63;27.17;100242.03;4984742;28;20426;-65
2021/04/06 09:43:08;;;;;;;31.80;8.85;;;;;;;29.97;26.74;100243.06;4984601;28;20128;-64
2021/04/06 09:45:34;;;;;;;21.23;7.43;;;;;;;30.07;25.54;100238.47;4987104;28;20050;-65
2021/04/06 09:48:01;;;;;;;21.88;7.97;;;;;;;30.29;25.28;100242.06;4982659;28;20125;-68
2021/04/06 09:50:28;;;;;;;20.63;6.88;;;;;;;30.29;24.92;100239.19;4986624;28;20038;-66
2021/04/06 09:52:55;;;;;;;22.33;7.93;;;;;;;30.48;25.12;100237.78;4984824;28;20065;-66
2021/04/06 09:55:24;;;;;;;22.83;7.35;;;;;;;30.66;24.71;100228.97;4981508;28;20050;-64
2021/04/06 09:57:58;;;;;;;19.48;8.07;;;;;;;30.75;25.05;100232.19;4985539;28;20389;-65
2021/04/06 10:00:31;;;;;;;25.98;7.03;;;;;;;30.82;24.04;100232.16;4976704;28;20042;-64
2021/04/06 10:03:11;;;;;;;27.60;7.53;;;;;;;30.64;23.79;100168.88;4984683;28;20050;-66
2021/04/06 10:05:43;;;;;;;21.73;6.47;;;;;;;31.22;23.23;100223.09;4980869;28;20066;-65
2021/04/06 10:08:14;;;;;;;23.95;7.60;;;;;;;31.54;23.39;100219.81;4982578;28;20046;-66
2021/04/06 10:10:49;;;;;;;19.17;6.53;;;;;;;31.81;22.66;100226.44;4985122;28;20050;-66
2021/04/06 10:13:15;;;;;;;22.70;5.82;;;;;;;31.83;22.00;100226.00;4984140;28;20133;-66
2021/04/06 10:15:41;;;;;;;23.40;6.80;;;;;;;32.05;21.99;100214.97;4977180;28;20053;-64
2021/04/06 10:18:13;;;;;;;25.77;6.22;;;;;;;32.38;21.64;100213.22;4983159;28;20046;-65
2021/04/06 10:20:45;;;;;;;19.92;6.57;;;;;;;32.64;21.62;100220.22;4980787;28;20054;-64
2021/04/06 10:23:14;;;;;;;22.00;6.57;;;;;;;32.58;21.42;100198.03;4984981;28;20042;-65
2021/04/06 10:25:43;;;;;;;31.98;6.80;;;;;;;32.87;21.72;100213.59;4986795;28;20060;-65
2021/04/06 10:28:31;;;;;;;27.45;8.13;;;;;;;33.06;21.26;100209.16;4984889;28;20053;-65
2021/04/06 10:31:00;;;;;;;34.20;7.57;;;;;;;33.17;20.93;100200.25;4981228;28;20046;-65
2021/04/06 10:33:30;;;;;;;20.40;6.38;;;;;;;33.36;20.95;100210.19;4989088;28;20479;-63
2021/04/06 10:35:59;;;;;;;22.35;5.95;;;;;;;32.95;20.80;100197.75;4986492;28;20046;-64
2021/04/06 10:38:29;;;;;;;28.13;7.07;;;;;;;33.01;20.39;100212.53;4983724;28;20054;-65
2021/04/06 10:41:17;;;;;;;22.60;6.70;;;;;;;33.08;20.68;100189.25;4984891;28;20442;-65
2021/04/06 10:43:50;;;;;;;26.35;7.50;;;;;;;33.36;20.08;100202.31;4984991;28;20077;-66
2021/04/06 10:46:19;;;;;;;31.25;6.63;;;;;;;33.42;19.38;100188.13;4984736;28;20054;-65
2021/04/06 10:48:50;;;;;;;22.42;5.88;;;;;;;33.68;19.62;100180.56;4987586;28;20185;-66
2021/04/06 10:51:23;;;;;;;19.80;7.18;;;;;;;33.89;19.76;100208.22;4982310;28;20052;-66
2021/04/06 10:53:55;;;;;;;23.00;8.10;;;;;;;33.63;20.83;100202.16;4988882;28;20455;-66
2021/04/06 10:56:26;;;;;;;22.70;10.45;;;;;;;33.23;21.80;100199.28;4989461;28;20483;-66
2021/04/06 10:58:52;;;;;;;24.27;9.27;;;;;;;33.11;21.78;100213.59;4986109;28;20056;-64
2021/04/06 11:01:23;;;;;;;17.40;8.05;;;;;;;33.00;22.67;100205.13;4989744;28;20057;-65
2021/04/06 11:03:54;;;;;;;25.77;8.80;;;;;;;32.96;22.78;100198.59;4985174;28;20046;-65
2021/04/06 11:06:28;;;;;;;24.02;8.40;;;;;;;33.67;22.36;100207.88;4987011;28;20062;-65
2021/04/06 11:08:56;;;;;;;25.80;8.93;;;;;;;34.48;21.38;100195.59;4988065;28;20145;-65
2021/04/06 11:11:25;;;;;;;21.90;10.02;;;;;;;34.71;21.31;100209.13;4991541;28;20497;-65
2021/04/06 11:13:56;;;;;;;15.93;8.98;;;;;;;34.31;21.41;100196.88;4991591;28;20380;-66
2021/04/06 11:16:24;;;;;;;27.05;9.50;;;;;;;33.61;21.85;100192.28;4983366;28;20046;-65
2021/04/06 11:19:05;;;;;;;19.25;7.95;;;;;;;33.22;22.48;100200.53;4986024;28;20412;-66
2021/04/06 11:21:34;;;;;;;26.77;9.85;;;;;;;32.74;22.55;100186.59;4980308;28;20042;-65
2021/04/06 11:24:00;;;;;;;;;;;;;;;31.98;24.18;100198.59;4989265;28;20046;-65
2021/04/06 11:26:29;;;;;;;;;;;;;;;31.67;24.30;100199.84;4987703;28;19933;-66
2021/04/06 11:28:56;;;;;;;38.58;10.88;;;;;;;32.18;23.60;100192.91;4987774;28;20762;-65
2021/04/06 11:31:22;;;;;;;24.75;9.60;;;;;;;32.57;23.23;100200.09;4986935;28;20085;-65
2021/04/06 11:33:49;;;;;;;22.67;10.70;;;;;;;32.74;22.83;100203.94;4986711;28;20050;-64
2021/04/06 11:36:16;;;;;;;23.45;10.02;;;;;;;32.72;23.35;100201.50;4984318;28;20050;-68